sensor_id;sensor_type;location;lat;lon;timestamp;P1;durP1;ratioP1;P2;durP2;ratioP2
78752;SDS011;68072;51.688;7.842;2024-03-22T00:00:28;25.00;;;11.73;;
78752;SDS011;68072;51.688;7.842;2024-03-22T00:02:53;25.23;;;11.73;;
78752;SDS011;68072;51.688;7.842;2024-03-22T00:05:19;26.90;;;11.70;;
78752;SDS011;68072;51.688;7.842;2024-03-22T00:07:46;27.13;;;11.35;;
78752;SDS011;68072;51.688;7.842;2024-03-22T00:10:11;26.53;;;11.47;;
78752;SDS011;68072;51.688;7.842;2024-03-22T00:12:38;29.92;;;12.38;;
78752;SDS011;68072;51.688;7.842;2024-03-22T00:15:03;26.80;;;11.50;;
78752;SDS011;68072;51.688;7.842;2024-03-22T00:17:28;27.25;;;11.70;;
78752;SDS011;68072;51.688;7.842;2024-03-22T00:19:55;26.02;;;12.23;;
78752;SDS011;68072;51.688;7.842;2024-03-22T00:22:20;28.70;;;12.73;;
78752;SDS011;68072;51.688;7.842;2024-03-22T00:24:46;32.07;;;13.37;;
78752;SDS011;68072;51.688;7.842;2024-03-22T00:27:11;29.63;;;12.50;;
78752;SDS011;68072;51.688;7.842;2024-03-22T00:29:37;25.58;;;11.60;;
78752;SDS011;68072;51.688;7.842;2024-03-22T00:32:02;28.93;;;12.83;;
78752;SDS011;68072;51.688;7.842;2024-03-22T00:34:28;30.55;;;13.02;;
78752;SDS011;68072;51.688;7.842;2024-03-22T00:36:53;33.80;;;13.60;;
78752;SDS011;68072;51.688;7.842;2024-03-22T00:39:18;29.40;;;11.27;;
78752;SDS011;68072;51.688;7.842;2024-03-22T00:41:43;32.13;;;12.70;;
78752;SDS011;68072;51.688;7.842;2024-03-22T00:44:09;31.43;;;13.67;;
78752;SDS011;68072;51.688;7.842;2024-03-22T00:46:34;26.63;;;12.60;;
78752;SDS011;68072;51.688;7.842;2024-03-22T00:51:26;26.80;;;11.25;;
78752;SDS011;68072;51.688;7.842;2024-03-22T00:53:51;29.88;;;12.63;;
78752;SDS011;68072;51.688;7.842;2024-03-22T00:56:16;29.43;;;12.37;;
78752;SDS011;68072;51.688;7.842;2024-03-22T00:58:41;34.17;;;12.77;;
78752;SDS011;68072;51.688;7.842;2024-03-22T01:01:07;28.33;;;12.67;;
78752;SDS011;68072;51.688;7.842;2024-03-22T01:03:32;30.40;;;12.67;;
78752;SDS011;68072;51.688;7.842;2024-03-22T01:05:57;24.27;;;10.40;;
78752;SDS011;68072;51.688;7.842;2024-03-22T01:08:22;28.20;;;11.73;;
78752;SDS011;68072;51.688;7.842;2024-03-22T01:10:48;31.83;;;12.48;;
78752;SDS011;68072;51.688;7.842;2024-03-22T01:13:13;33.43;;;12.03;;
78752;SDS011;68072;51.688;7.842;2024-03-22T01:15:38;30.43;;;10.73;;
78752;SDS011;68072;51.688;7.842;2024-03-22T01:18:04;34.67;;;12.77;;
78752;SDS011;68072;51.688;7.842;2024-03-22T01:20:29;29.67;;;11.65;;
78752;SDS011;68072;51.688;7.842;2024-03-22T01:22:54;27.90;;;10.05;;
78752;SDS011;68072;51.688;7.842;2024-03-22T01:25:20;28.90;;;11.97;;
78752;SDS011;68072;51.688;7.842;2024-03-22T01:27:45;32.13;;;13.00;;
78752;SDS011;68072;51.688;7.842;2024-03-22T01:30:10;37.40;;;13.83;;
78752;SDS011;68072;51.688;7.842;2024-03-22T01:32:36;31.50;;;12.48;;
78752;SDS011;68072;51.688;7.842;2024-03-22T01:35:01;32.47;;;12.27;;
78752;SDS011;68072;51.688;7.842;2024-03-22T01:37:27;31.85;;;14.60;;
78752;SDS011;68072;51.688;7.842;2024-03-22T01:39:53;30.40;;;12.57;;
78752;SDS011;68072;51.688;7.842;2024-03-22T01:42:18;34.13;;;13.17;;
78752;SDS011;68072;51.688;7.842;2024-03-22T01:44:43;27.20;;;11.10;;
78752;SDS011;68072;51.688;7.842;2024-03-22T01:47:08;26.70;;;11.90;;
78752;SDS011;68072;51.688;7.842;2024-03-22T01:49:33;26.90;;;10.97;;
78752;SDS011;68072;51.688;7.842;2024-03-22T01:51:59;32.57;;;12.43;;
78752;SDS011;68072;51.688;7.842;2024-03-22T01:54:24;24.20;;;10.87;;
78752;SDS011;68072;51.688;7.842;2024-03-22T01:56:49;30.37;;;11.77;;
78752;SDS011;68072;51.688;7.842;2024-03-22T01:59:14;27.93;;;11.80;;
78752;SDS011;68072;51.688;7.842;2024-03-22T02:01:40;27.95;;;11.00;;
78752;SDS011;68072;51.688;7.842;2024-03-22T02:04:06;26.70;;;11.70;;
78752;SDS011;68072;51.688;7.842;2024-03-22T02:06:31;30.57;;;11.43;;
78752;SDS011;68072;51.688;7.842;2024-03-22T02:08:57;29.25;;;12.32;;
78752;SDS011;68072;51.688;7.842;2024-03-22T02:11:23;26.52;;;11.20;;
78752;SDS011;68072;51.688;7.842;2024-03-22T02:13:48;25.95;;;11.60;;
78752;SDS011;68072;51.688;7.842;2024-03-22T02:16:13;28.37;;;11.70;;
78752;SDS011;68072;51.688;7.842;2024-03-22T02:18:38;27.57;;;11.90;;
78752;SDS011;68072;51.688;7.842;2024-03-22T02:21:04;22.80;;;9.87;;
78752;SDS011;68072;51.688;7.842;2024-03-22T02:23:32;28.98;;;12.32;;
78752;SDS011;68072;51.688;7.842;2024-03-22T02:25:58;28.30;;;11.75;;
78752;SDS011;68072;51.688;7.842;2024-03-22T02:28:24;21.67;;;10.07;;
78752;SDS011;68072;51.688;7.842;2024-03-22T02:30:49;27.30;;;12.03;;
78752;SDS011;68072;51.688;7.842;2024-03-22T02:33:14;24.33;;;10.63;;
78752;SDS011;68072;51.688;7.842;2024-03-22T02:35:39;25.93;;;11.03;;
78752;SDS011;68072;51.688;7.842;2024-03-22T02:38:04;25.33;;;10.23;;
78752;SDS011;68072;51.688;7.842;2024-03-22T02:40:30;32.47;;;11.37;;
78752;SDS011;68072;51.688;7.842;2024-03-22T02:42:55;27.00;;;12.07;;
78752;SDS011;68072;51.688;7.842;2024-03-22T02:45:20;23.93;;;10.73;;
78752;SDS011;68072;51.688;7.842;2024-03-22T02:47:46;23.63;;;9.45;;
78752;SDS011;68072;51.688;7.842;2024-03-22T02:50:11;26.03;;;10.23;;
78752;SDS011;68072;51.688;7.842;2024-03-22T02:52:36;25.97;;;11.50;;
78752;SDS011;68072;51.688;7.842;2024-03-22T02:55:02;26.63;;;10.23;;
78752;SDS011;68072;51.688;7.842;2024-03-22T02:57:27;26.47;;;11.00;;
78752;SDS011;68072;51.688;7.842;2024-03-22T02:59:52;26.38;;;10.45;;
78752;SDS011;68072;51.688;7.842;2024-03-22T03:02:18;25.30;;;10.90;;
78752;SDS011;68072;51.688;7.842;2024-03-22T03:04:43;24.93;;;10.63;;
78752;SDS011;68072;51.688;7.842;2024-03-22T03:07:08;27.00;;;11.37;;
78752;SDS011;68072;51.688;7.842;2024-03-22T03:09:33;27.02;;;10.88;;
78752;SDS011;68072;51.688;7.842;2024-03-22T03:11:59;26.00;;;11.43;;
78752;SDS011;68072;51.688;7.842;2024-03-22T03:14:24;27.03;;;10.63;;
78752;SDS011;68072;51.688;7.842;2024-03-22T03:16:49;26.17;;;10.77;;
78752;SDS011;68072;51.688;7.842;2024-03-22T03:19:14;29.27;;;10.57;;
78752;SDS011;68072;51.688;7.842;2024-03-22T03:21:40;26.30;;;10.23;;
78752;SDS011;68072;51.688;7.842;2024-03-22T03:24:05;25.95;;;11.73;;
78752;SDS011;68072;51.688;7.842;2024-03-22T03:26:30;29.30;;;11.63;;
78752;SDS011;68072;51.688;7.842;2024-03-22T03:28:56;27.70;;;11.07;;
78752;SDS011;68072;51.688;7.842;2024-03-22T03:31:21;27.77;;;11.13;;
78752;SDS011;68072;51.688;7.842;2024-03-22T03:33:46;25.00;;;10.20;;
78752;SDS011;68072;51.688;7.842;2024-03-22T03:36:11;21.50;;;10.00;;
78752;SDS011;68072;51.688;7.842;2024-03-22T03:38:37;30.83;;;11.83;;
78752;SDS011;68072;51.688;7.842;2024-03-22T03:41:02;26.17;;;10.48;;
78752;SDS011;68072;51.688;7.842;2024-03-22T03:43:28;20.00;;;9.23;;
78752;SDS011;68072;51.688;7.842;2024-03-22T03:45:53;21.03;;;9.30;;
78752;SDS011;68072;51.688;7.842;2024-03-22T03:48:19;20.20;;;10.02;;
78752;SDS011;68072;51.688;7.842;2024-03-22T03:50:50;25.57;;;10.90;;
78752;SDS011;68072;51.688;7.842;2024-03-22T03:53:15;16.17;;;8.00;;
78752;SDS011;68072;51.688;7.842;2024-03-22T03:55:41;24.37;;;9.50;;
78752;SDS011;68072;51.688;7.842;2024-03-22T03:58:06;24.20;;;10.53;;
78752;SDS011;68072;51.688;7.842;2024-03-22T04:00:32;24.73;;;10.57;;
78752;SDS011;68072;51.688;7.842;2024-03-22T04:02:57;21.50;;;10.40;;
78752;SDS011;68072;51.688;7.842;2024-03-22T04:05:22;23.27;;;9.00;;
78752;SDS011;68072;51.688;7.842;2024-03-22T04:07:47;25.17;;;10.20;;
78752;SDS011;68072;51.688;7.842;2024-03-22T04:10:13;26.05;;;9.80;;
78752;SDS011;68072;51.688;7.842;2024-03-22T04:12:38;23.33;;;10.83;;
78752;SDS011;68072;51.688;7.842;2024-03-22T04:15:03;21.73;;;10.30;;
78752;SDS011;68072;51.688;7.842;2024-03-22T04:17:29;21.40;;;10.07;;
78752;SDS011;68072;51.688;7.842;2024-03-22T04:19:54;24.67;;;10.87;;
78752;SDS011;68072;51.688;7.842;2024-03-22T04:22:19;20.93;;;9.20;;
78752;SDS011;68072;51.688;7.842;2024-03-22T04:24:44;20.93;;;9.47;;
78752;SDS011;68072;51.688;7.842;2024-03-22T04:27:10;26.33;;;10.50;;
78752;SDS011;68072;51.688;7.842;2024-03-22T04:29:35;22.80;;;11.03;;
78752;SDS011;68072;51.688;7.842;2024-03-22T04:32:00;27.97;;;10.17;;
78752;SDS011;68072;51.688;7.842;2024-03-22T04:34:25;27.90;;;10.87;;
78752;SDS011;68072;51.688;7.842;2024-03-22T04:36:51;24.37;;;10.13;;
78752;SDS011;68072;51.688;7.842;2024-03-22T04:39:19;25.42;;;10.65;;
78752;SDS011;68072;51.688;7.842;2024-03-22T04:41:45;23.98;;;9.23;;
78752;SDS011;68072;51.688;7.842;2024-03-22T04:44:10;17.93;;;9.20;;
78752;SDS011;68072;51.688;7.842;2024-03-22T04:46:35;23.30;;;9.83;;
78752;SDS011;68072;51.688;7.842;2024-03-22T04:49:00;21.40;;;9.27;;
78752;SDS011;68072;51.688;7.842;2024-03-22T04:51:26;24.07;;;10.10;;
78752;SDS011;68072;51.688;7.842;2024-03-22T04:53:51;19.23;;;7.67;;
78752;SDS011;68072;51.688;7.842;2024-03-22T04:56:16;24.23;;;11.03;;
78752;SDS011;68072;51.688;7.842;2024-03-22T04:58:41;26.43;;;10.30;;
78752;SDS011;68072;51.688;7.842;2024-03-22T05:01:06;18.77;;;9.03;;
78752;SDS011;68072;51.688;7.842;2024-03-22T05:03:32;19.13;;;8.63;;
78752;SDS011;68072;51.688;7.842;2024-03-22T05:05:57;24.70;;;9.83;;
78752;SDS011;68072;51.688;7.842;2024-03-22T05:08:23;26.48;;;9.65;;
78752;SDS011;68072;51.688;7.842;2024-03-22T05:10:48;23.63;;;10.30;;
78752;SDS011;68072;51.688;7.842;2024-03-22T05:13:13;24.47;;;9.83;;
78752;SDS011;68072;51.688;7.842;2024-03-22T05:15:39;21.47;;;10.30;;
78752;SDS011;68072;51.688;7.842;2024-03-22T05:18:04;23.83;;;9.90;;
78752;SDS011;68072;51.688;7.842;2024-03-22T05:20:29;22.48;;;9.70;;
78752;SDS011;68072;51.688;7.842;2024-03-22T05:22:55;20.73;;;9.93;;
78752;SDS011;68072;51.688;7.842;2024-03-22T05:25:20;22.03;;;11.10;;
78752;SDS011;68072;51.688;7.842;2024-03-22T05:27:45;20.93;;;9.57;;
78752;SDS011;68072;51.688;7.842;2024-03-22T05:30:11;21.23;;;8.82;;
78752;SDS011;68072;51.688;7.842;2024-03-22T05:32:37;22.50;;;9.80;;
78752;SDS011;68072;51.688;7.842;2024-03-22T05:35:02;24.20;;;10.25;;
78752;SDS011;68072;51.688;7.842;2024-03-22T05:37:27;23.05;;;9.18;;
78752;SDS011;68072;51.688;7.842;2024-03-22T05:39:52;22.73;;;9.17;;
78752;SDS011;68072;51.688;7.842;2024-03-22T05:42:18;21.07;;;9.80;;
78752;SDS011;68072;51.688;7.842;2024-03-22T05:44:44;23.17;;;9.80;;
78752;SDS011;68072;51.688;7.842;2024-03-22T05:47:09;25.35;;;10.38;;
78752;SDS011;68072;51.688;7.842;2024-03-22T05:49:34;23.47;;;9.27;;
78752;SDS011;68072;51.688;7.842;2024-03-22T05:52:00;26.33;;;8.98;;
78752;SDS011;68072;51.688;7.842;2024-03-22T05:54:25;24.50;;;9.10;;
78752;SDS011;68072;51.688;7.842;2024-03-22T05:56:50;17.07;;;7.23;;
78752;SDS011;68072;51.688;7.842;2024-03-22T05:59:16;17.80;;;8.13;;
78752;SDS011;68072;51.688;7.842;2024-03-22T06:01:41;31.97;;;8.83;;
78752;SDS011;68072;51.688;7.842;2024-03-22T06:04:06;17.67;;;8.33;;
78752;SDS011;68072;51.688;7.842;2024-03-22T06:06:32;17.83;;;8.30;;
78752;SDS011;68072;51.688;7.842;2024-03-22T06:08:57;21.75;;;9.98;;
78752;SDS011;68072;51.688;7.842;2024-03-22T06:11:25;19.80;;;8.95;;
78752;SDS011;68072;51.688;7.842;2024-03-22T06:13:50;19.53;;;10.07;;
78752;SDS011;68072;51.688;7.842;2024-03-22T06:16:16;18.95;;;9.13;;
78752;SDS011;68072;51.688;7.842;2024-03-22T06:18:41;19.40;;;8.23;;
78752;SDS011;68072;51.688;7.842;2024-03-22T06:21:06;22.43;;;9.53;;
78752;SDS011;68072;51.688;7.842;2024-03-22T06:23:32;14.03;;;6.93;;
78752;SDS011;68072;51.688;7.842;2024-03-22T06:25:57;17.95;;;8.10;;
78752;SDS011;68072;51.688;7.842;2024-03-22T06:28:23;16.73;;;9.05;;
78752;SDS011;68072;51.688;7.842;2024-03-22T06:30:48;20.63;;;8.77;;
78752;SDS011;68072;51.688;7.842;2024-03-22T06:33:13;21.17;;;8.77;;
78752;SDS011;68072;51.688;7.842;2024-03-22T06:35:39;17.27;;;8.03;;
78752;SDS011;68072;51.688;7.842;2024-03-22T06:38:05;14.45;;;6.85;;
78752;SDS011;68072;51.688;7.842;2024-03-22T06:40:32;15.97;;;7.67;;
78752;SDS011;68072;51.688;7.842;2024-03-22T06:42:57;11.80;;;7.28;;
78752;SDS011;68072;51.688;7.842;2024-03-22T06:45:23;17.13;;;8.25;;
78752;SDS011;68072;51.688;7.842;2024-03-22T06:47:48;16.37;;;8.87;;
78752;SDS011;68072;51.688;7.842;2024-03-22T06:50:14;15.70;;;7.70;;
78752;SDS011;68072;51.688;7.842;2024-03-22T06:52:39;13.43;;;6.88;;
78752;SDS011;68072;51.688;7.842;2024-03-22T06:55:04;23.47;;;8.90;;
78752;SDS011;68072;51.688;7.842;2024-03-22T06:57:30;17.02;;;7.68;;
78752;SDS011;68072;51.688;7.842;2024-03-22T06:59:55;17.50;;;7.72;;
78752;SDS011;68072;51.688;7.842;2024-03-22T07:02:20;15.07;;;7.60;;
78752;SDS011;68072;51.688;7.842;2024-03-22T07:04:46;14.48;;;6.80;;
78752;SDS011;68072;51.688;7.842;2024-03-22T07:07:11;15.37;;;7.60;;
78752;SDS011;68072;51.688;7.842;2024-03-22T07:09:37;14.80;;;7.97;;
78752;SDS011;68072;51.688;7.842;2024-03-22T07:12:02;13.50;;;7.10;;
78752;SDS011;68072;51.688;7.842;2024-03-22T07:14:27;15.82;;;6.88;;
78752;SDS011;68072;51.688;7.842;2024-03-22T07:16:52;18.80;;;7.20;;
78752;SDS011;68072;51.688;7.842;2024-03-22T07:19:21;13.45;;;7.03;;
78752;SDS011;68072;51.688;7.842;2024-03-22T07:21:49;12.17;;;6.53;;
78752;SDS011;68072;51.688;7.842;2024-03-22T07:24:14;12.88;;;6.57;;
78752;SDS011;68072;51.688;7.842;2024-03-22T07:26:39;12.30;;;6.17;;
78752;SDS011;68072;51.688;7.842;2024-03-22T07:29:05;9.27;;;5.33;;
78752;SDS011;68072;51.688;7.842;2024-03-22T07:31:30;13.00;;;5.80;;
78752;SDS011;68072;51.688;7.842;2024-03-22T07:33:55;15.50;;;6.33;;
78752;SDS011;68072;51.688;7.842;2024-03-22T07:36:21;12.63;;;5.18;;
78752;SDS011;68072;51.688;7.842;2024-03-22T07:38:46;12.38;;;6.28;;
78752;SDS011;68072;51.688;7.842;2024-03-22T07:41:14;14.75;;;6.28;;
78752;SDS011;68072;51.688;7.842;2024-03-22T07:43:39;11.57;;;5.70;;
78752;SDS011;68072;51.688;7.842;2024-03-22T07:46:04;15.53;;;6.70;;
78752;SDS011;68072;51.688;7.842;2024-03-22T07:48:29;12.03;;;6.50;;
78752;SDS011;68072;51.688;7.842;2024-03-22T07:50:58;10.53;;;6.03;;
78752;SDS011;68072;51.688;7.842;2024-03-22T07:53:23;12.35;;;6.13;;
78752;SDS011;68072;51.688;7.842;2024-03-22T07:55:49;10.77;;;5.25;;
78752;SDS011;68072;51.688;7.842;2024-03-22T07:58:14;12.07;;;6.53;;
78752;SDS011;68072;51.688;7.842;2024-03-22T08:00:39;9.97;;;5.57;;
78752;SDS011;68072;51.688;7.842;2024-03-22T08:03:04;10.27;;;5.53;;
78752;SDS011;68072;51.688;7.842;2024-03-22T08:05:29;12.23;;;5.33;;
78752;SDS011;68072;51.688;7.842;2024-03-22T08:07:55;11.97;;;6.30;;
78752;SDS011;68072;51.688;7.842;2024-03-22T08:10:20;7.95;;;4.78;;
78752;SDS011;68072;51.688;7.842;2024-03-22T08:12:46;12.60;;;6.13;;
78752;SDS011;68072;51.688;7.842;2024-03-22T08:15:11;9.97;;;5.33;;
78752;SDS011;68072;51.688;7.842;2024-03-22T08:17:36;11.00;;;5.33;;
78752;SDS011;68072;51.688;7.842;2024-03-22T08:20:02;10.48;;;5.60;;
78752;SDS011;68072;51.688;7.842;2024-03-22T08:22:27;10.88;;;5.88;;
78752;SDS011;68072;51.688;7.842;2024-03-22T08:27:21;10.90;;;5.97;;
78752;SDS011;68072;51.688;7.842;2024-03-22T08:29:46;10.90;;;6.07;;
78752;SDS011;68072;51.688;7.842;2024-03-22T08:32:11;11.93;;;5.73;;
78752;SDS011;68072;51.688;7.842;2024-03-22T08:34:36;12.10;;;7.17;;
78752;SDS011;68072;51.688;7.842;2024-03-22T08:37:02;12.83;;;6.07;;
78752;SDS011;68072;51.688;7.842;2024-03-22T08:39:28;10.68;;;5.28;;
78752;SDS011;68072;51.688;7.842;2024-03-22T08:41:54;9.85;;;5.40;;
78752;SDS011;68072;51.688;7.842;2024-03-22T08:44:20;12.90;;;6.23;;
78752;SDS011;68072;51.688;7.842;2024-03-22T08:46:45;9.05;;;4.70;;
78752;SDS011;68072;51.688;7.842;2024-03-22T08:49:11;12.18;;;5.05;;
78752;SDS011;68072;51.688;7.842;2024-03-22T08:51:37;10.40;;;5.47;;
78752;SDS011;68072;51.688;7.842;2024-03-22T08:54:02;11.93;;;5.40;;
78752;SDS011;68072;51.688;7.842;2024-03-22T08:56:28;13.40;;;5.05;;
78752;SDS011;68072;51.688;7.842;2024-03-22T08:58:54;9.77;;;5.20;;
78752;SDS011;68072;51.688;7.842;2024-03-22T09:01:20;10.23;;;5.45;;
78752;SDS011;68072;51.688;7.842;2024-03-22T09:03:45;10.30;;;5.60;;
78752;SDS011;68072;51.688;7.842;2024-03-22T09:06:11;12.23;;;5.93;;
78752;SDS011;68072;51.688;7.842;2024-03-22T09:08:36;9.10;;;5.55;;
78752;SDS011;68072;51.688;7.842;2024-03-22T09:11:02;11.90;;;6.60;;
78752;SDS011;68072;51.688;7.842;2024-03-22T09:13:28;9.63;;;5.97;;
78752;SDS011;68072;51.688;7.842;2024-03-22T09:15:57;7.63;;;4.40;;
78752;SDS011;68072;51.688;7.842;2024-03-22T09:18:22;12.80;;;6.22;;
78752;SDS011;68072;51.688;7.842;2024-03-22T09:20:48;12.03;;;6.03;;
78752;SDS011;68072;51.688;7.842;2024-03-22T09:23:13;12.10;;;6.13;;
78752;SDS011;68072;51.688;7.842;2024-03-22T09:25:38;10.10;;;5.20;;
78752;SDS011;68072;51.688;7.842;2024-03-22T09:28:03;20.17;;;6.40;;
78752;SDS011;68072;51.688;7.842;2024-03-22T09:30:29;13.98;;;5.88;;
78752;SDS011;68072;51.688;7.842;2024-03-22T09:32:54;9.93;;;5.53;;
78752;SDS011;68072;51.688;7.842;2024-03-22T09:35:19;11.83;;;5.33;;
78752;SDS011;68072;51.688;7.842;2024-03-22T09:37:45;9.43;;;4.60;;
78752;SDS011;68072;51.688;7.842;2024-03-22T09:40:10;9.23;;;5.07;;
78752;SDS011;68072;51.688;7.842;2024-03-22T09:42:37;11.63;;;5.63;;
78752;SDS011;68072;51.688;7.842;2024-03-22T09:45:04;9.80;;;5.10;;
78752;SDS011;68072;51.688;7.842;2024-03-22T09:47:31;11.40;;;4.90;;
78752;SDS011;68072;51.688;7.842;2024-03-22T09:49:57;8.68;;;5.28;;
78752;SDS011;68072;51.688;7.842;2024-03-22T09:52:22;11.37;;;5.70;;
78752;SDS011;68072;51.688;7.842;2024-03-22T09:54:48;8.02;;;4.95;;
78752;SDS011;68072;51.688;7.842;2024-03-22T09:57:13;12.37;;;5.83;;
78752;SDS011;68072;51.688;7.842;2024-03-22T09:59:41;11.77;;;5.93;;
78752;SDS011;68072;51.688;7.842;2024-03-22T10:02:06;8.63;;;5.15;;
78752;SDS011;68072;51.688;7.842;2024-03-22T10:04:33;10.38;;;5.63;;
78752;SDS011;68072;51.688;7.842;2024-03-22T10:07:01;13.00;;;5.72;;
78752;SDS011;68072;51.688;7.842;2024-03-22T10:09:29;10.13;;;5.40;;
78752;SDS011;68072;51.688;7.842;2024-03-22T10:11:57;8.85;;;4.82;;
78752;SDS011;68072;51.688;7.842;2024-03-22T10:14:23;10.67;;;5.60;;
78752;SDS011;68072;51.688;7.842;2024-03-22T10:16:51;10.20;;;6.00;;
78752;SDS011;68072;51.688;7.842;2024-03-22T10:19:23;11.82;;;5.50;;
78752;SDS011;68072;51.688;7.842;2024-03-22T10:22:09;7.75;;;4.72;;
78752;SDS011;68072;51.688;7.842;2024-03-22T10:24:33;10.25;;;5.60;;
78752;SDS011;68072;51.688;7.842;2024-03-22T10:26:59;9.48;;;5.65;;
78752;SDS011;68072;51.688;7.842;2024-03-22T10:29:24;9.80;;;4.50;;
78752;SDS011;68072;51.688;7.842;2024-03-22T10:31:53;9.53;;;5.07;;
78752;SDS011;68072;51.688;7.842;2024-03-22T10:34:18;10.32;;;5.15;;
78752;SDS011;68072;51.688;7.842;2024-03-22T10:36:45;12.70;;;6.97;;
78752;SDS011;68072;51.688;7.842;2024-03-22T10:39:13;9.77;;;5.20;;
78752;SDS011;68072;51.688;7.842;2024-03-22T10:41:38;11.32;;;5.32;;
78752;SDS011;68072;51.688;7.842;2024-03-22T10:44:04;11.93;;;5.13;;
78752;SDS011;68072;51.688;7.842;2024-03-22T10:46:30;8.70;;;5.47;;
78752;SDS011;68072;51.688;7.842;2024-03-22T10:48:56;9.73;;;5.30;;
78752;SDS011;68072;51.688;7.842;2024-03-22T10:51:21;11.95;;;6.57;;
78752;SDS011;68072;51.688;7.842;2024-03-22T10:53:48;10.35;;;6.05;;
78752;SDS011;68072;51.688;7.842;2024-03-22T10:58:40;8.57;;;5.40;;
78752;SDS011;68072;51.688;7.842;2024-03-22T11:01:05;12.20;;;5.53;;
78752;SDS011;68072;51.688;7.842;2024-03-22T11:03:31;15.30;;;5.93;;
78752;SDS011;68072;51.688;7.842;2024-03-22T11:05:58;11.18;;;5.63;;
78752;SDS011;68072;51.688;7.842;2024-03-22T11:08:26;12.20;;;5.40;;
78752;SDS011;68072;51.688;7.842;2024-03-22T11:10:52;10.45;;;5.13;;
78752;SDS011;68072;51.688;7.842;2024-03-22T11:13:17;7.95;;;5.00;;
78752;SDS011;68072;51.688;7.842;2024-03-22T11:15:43;10.60;;;6.00;;
78752;SDS011;68072;51.688;7.842;2024-03-22T11:18:08;8.48;;;4.55;;
78752;SDS011;68072;51.688;7.842;2024-03-22T11:20:36;12.93;;;5.83;;
78752;SDS011;68072;51.688;7.842;2024-03-22T11:23:01;7.28;;;4.18;;
78752;SDS011;68072;51.688;7.842;2024-03-22T11:25:26;11.77;;;5.63;;
78752;SDS011;68072;51.688;7.842;2024-03-22T11:27:52;10.70;;;5.10;;
78752;SDS011;68072;51.688;7.842;2024-03-22T11:30:19;14.75;;;5.90;;
78752;SDS011;68072;51.688;7.842;2024-03-22T11:32:44;11.57;;;5.70;;
78752;SDS011;68072;51.688;7.842;2024-03-22T11:35:10;13.50;;;6.53;;
78752;SDS011;68072;51.688;7.842;2024-03-22T11:40:01;9.40;;;4.78;;
78752;SDS011;68072;51.688;7.842;2024-03-22T11:42:30;10.77;;;4.95;;
78752;SDS011;68072;51.688;7.842;2024-03-22T11:44:56;8.68;;;4.93;;
78752;SDS011;68072;51.688;7.842;2024-03-22T11:47:21;9.37;;;5.10;;
78752;SDS011;68072;51.688;7.842;2024-03-22T11:49:46;11.00;;;4.73;;
78752;SDS011;68072;51.688;7.842;2024-03-22T11:52:12;10.43;;;5.50;;
78752;SDS011;68072;51.688;7.842;2024-03-22T11:54:39;8.13;;;4.75;;
78752;SDS011;68072;51.688;7.842;2024-03-22T11:57:04;10.45;;;5.32;;
78752;SDS011;68072;51.688;7.842;2024-03-22T11:59:30;9.27;;;4.47;;
78752;SDS011;68072;51.688;7.842;2024-03-22T12:01:55;12.17;;;5.07;;
78752;SDS011;68072;51.688;7.842;2024-03-22T12:04:20;7.23;;;4.17;;
78752;SDS011;68072;51.688;7.842;2024-03-22T12:06:46;7.17;;;4.90;;
78752;SDS011;68072;51.688;7.842;2024-03-22T12:09:11;9.23;;;5.30;;
78752;SDS011;68072;51.688;7.842;2024-03-22T12:11:40;10.60;;;6.18;;
78752;SDS011;68072;51.688;7.842;2024-03-22T12:14:05;15.73;;;6.85;;
78752;SDS011;68072;51.688;7.842;2024-03-22T12:16:30;12.93;;;6.53;;
78752;SDS011;68072;51.688;7.842;2024-03-22T12:18:56;17.10;;;7.50;;
78752;SDS011;68072;51.688;7.842;2024-03-22T12:21:21;11.57;;;7.10;;
78752;SDS011;68072;51.688;7.842;2024-03-22T12:23:47;13.50;;;7.50;;
78752;SDS011;68072;51.688;7.842;2024-03-22T12:26:12;11.03;;;6.03;;
78752;SDS011;68072;51.688;7.842;2024-03-22T12:28:38;10.85;;;5.97;;
78752;SDS011;68072;51.688;7.842;2024-03-22T12:31:04;13.03;;;6.70;;
78752;SDS011;68072;51.688;7.842;2024-03-22T12:33:29;7.13;;;5.28;;
78752;SDS011;68072;51.688;7.842;2024-03-22T12:35:54;13.30;;;7.53;;
78752;SDS011;68072;51.688;7.842;2024-03-22T12:38:19;11.33;;;6.73;;
78752;SDS011;68072;51.688;7.842;2024-03-22T12:40:45;9.97;;;6.10;;
78752;SDS011;68072;51.688;7.842;2024-03-22T12:43:10;19.45;;;7.53;;
78752;SDS011;68072;51.688;7.842;2024-03-22T12:45:38;11.43;;;7.28;;
78752;SDS011;68072;51.688;7.842;2024-03-22T12:48:04;9.23;;;5.53;;
78752;SDS011;68072;51.688;7.842;2024-03-22T12:50:29;10.35;;;6.40;;
78752;SDS011;68072;51.688;7.842;2024-03-22T12:52:55;12.18;;;7.05;;
78752;SDS011;68072;51.688;7.842;2024-03-22T12:55:20;12.60;;;7.67;;
78752;SDS011;68072;51.688;7.842;2024-03-22T12:57:46;14.33;;;6.80;;
78752;SDS011;68072;51.688;7.842;2024-03-22T13:00:11;14.55;;;7.72;;
78752;SDS011;68072;51.688;7.842;2024-03-22T13:02:43;13.45;;;7.55;;
78752;SDS011;68072;51.688;7.842;2024-03-22T13:05:08;17.92;;;8.18;;
78752;SDS011;68072;51.688;7.842;2024-03-22T13:07:34;13.18;;;7.40;;
78752;SDS011;68072;51.688;7.842;2024-03-22T13:10:00;15.03;;;7.73;;
78752;SDS011;68072;51.688;7.842;2024-03-22T13:12:25;15.97;;;7.93;;
78752;SDS011;68072;51.688;7.842;2024-03-22T13:14:51;19.98;;;10.70;;
78752;SDS011;68072;51.688;7.842;2024-03-22T13:17:17;17.60;;;8.57;;
78752;SDS011;68072;51.688;7.842;2024-03-22T13:19:42;9.87;;;5.77;;
78752;SDS011;68072;51.688;7.842;2024-03-22T13:22:07;18.13;;;8.37;;
78752;SDS011;68072;51.688;7.842;2024-03-22T13:24:33;15.93;;;8.30;;
78752;SDS011;68072;51.688;7.842;2024-03-22T13:26:58;15.20;;;8.70;;
78752;SDS011;68072;51.688;7.842;2024-03-22T13:29:23;19.73;;;8.60;;
78752;SDS011;68072;51.688;7.842;2024-03-22T13:31:48;19.33;;;9.67;;
78752;SDS011;68072;51.688;7.842;2024-03-22T13:34:14;15.23;;;8.80;;
78752;SDS011;68072;51.688;7.842;2024-03-22T13:36:39;13.33;;;7.63;;
78752;SDS011;68072;51.688;7.842;2024-03-22T13:39:04;15.77;;;8.33;;
78752;SDS011;68072;51.688;7.842;2024-03-22T13:41:29;13.17;;;7.00;;
78752;SDS011;68072;51.688;7.842;2024-03-22T13:43:55;14.02;;;7.88;;
78752;SDS011;68072;51.688;7.842;2024-03-22T13:46:20;17.07;;;8.80;;
78752;SDS011;68072;51.688;7.842;2024-03-22T13:48:45;19.27;;;9.30;;
78752;SDS011;68072;51.688;7.842;2024-03-22T13:51:11;15.73;;;8.80;;
78752;SDS011;68072;51.688;7.842;2024-03-22T13:53:36;15.63;;;8.63;;
78752;SDS011;68072;51.688;7.842;2024-03-22T13:56:01;17.23;;;9.20;;
78752;SDS011;68072;51.688;7.842;2024-03-22T13:58:27;16.80;;;8.50;;
78752;SDS011;68072;51.688;7.842;2024-03-22T14:00:52;16.90;;;8.90;;
78752;SDS011;68072;51.688;7.842;2024-03-22T14:03:17;14.65;;;8.82;;
78752;SDS011;68072;51.688;7.842;2024-03-22T14:05:43;19.67;;;9.10;;
78752;SDS011;68072;51.688;7.842;2024-03-22T14:08:09;19.38;;;9.80;;
78752;SDS011;68072;51.688;7.842;2024-03-22T14:10:34;17.07;;;8.43;;
78752;SDS011;68072;51.688;7.842;2024-03-22T14:12:59;16.25;;;8.90;;
78752;SDS011;68072;51.688;7.842;2024-03-22T14:15:25;19.73;;;9.87;;
78752;SDS011;68072;51.688;7.842;2024-03-22T14:20:16;18.63;;;10.03;;
78752;SDS011;68072;51.688;7.842;2024-03-22T14:22:42;18.80;;;10.07;;
78752;SDS011;68072;51.688;7.842;2024-03-22T14:25:08;23.38;;;10.65;;
78752;SDS011;68072;51.688;7.842;2024-03-22T14:27:33;19.13;;;10.55;;
78752;SDS011;68072;51.688;7.842;2024-03-22T14:29:59;22.55;;;10.95;;
78752;SDS011;68072;51.688;7.842;2024-03-22T14:32:24;21.50;;;8.30;;